sensor_id;sensor_type;location;lat;lon;timestamp;P1;durP1;ratioP1;P2;durP2;ratioP2
68273;SDS011;55104;47.356;19.448;2022-08-03T00:01:34;8.77;;;4.63;;
68273;SDS011;55104;47.356;19.448;2022-08-03T00:04:36;8.10;;;4.50;;
68273;SDS011;55104;47.356;19.448;2022-08-03T00:07:38;9.57;;;4.65;;
68273;SDS011;55104;47.356;19.448;2022-08-03T00:10:41;9.00;;;4.80;;
68273;SDS011;55104;47.356;19.448;2022-08-03T00:13:43;8.05;;;4.82;;
68273;SDS011;55104;47.356;19.448;2022-08-03T00:16:45;8.67;;;4.70;;
68273;SDS011;55104;47.356;19.448;2022-08-03T00:19:47;8.32;;;5.07;;
68273;SDS011;55104;47.356;19.448;2022-08-03T00:22:49;8.63;;;4.82;;
68273;SDS011;55104;47.356;19.448;2022-08-03T00:25:52;8.18;;;4.47;;
68273;SDS011;55104;47.356;19.448;2022-08-03T00:28:54;9.93;;;5.22;;
68273;SDS011;55104;47.356;19.448;2022-08-03T00:31:56;10.70;;;4.63;;
68273;SDS011;55104;47.356;19.448;2022-08-03T00:35:01;8.65;;;4.72;;
68273;SDS011;55104;47.356;19.448;2022-08-03T00:38:10;9.40;;;4.78;;
68273;SDS011;55104;47.356;19.448;2022-08-03T00:41:12;9.50;;;5.07;;
68273;SDS011;55104;47.356;19.448;2022-08-03T00:44:16;8.93;;;5.38;;
68273;SDS011;55104;47.356;19.448;2022-08-03T00:47:18;9.33;;;5.13;;
68273;SDS011;55104;47.356;19.448;2022-08-03T00:50:21;8.07;;;4.95;;
68273;SDS011;55104;47.356;19.448;2022-08-03T00:53:24;9.10;;;5.13;;
68273;SDS011;55104;47.356;19.448;2022-08-03T00:56:26;11.73;;;5.60;;
68273;SDS011;55104;47.356;19.448;2022-08-03T00:59:28;9.27;;;5.57;;
68273;SDS011;55104;47.356;19.448;2022-08-03T01:02:30;10.43;;;5.53;;
68273;SDS011;55104;47.356;19.448;2022-08-03T01:05:42;9.18;;;5.22;;
68273;SDS011;55104;47.356;19.448;2022-08-03T01:09:08;10.85;;;5.57;;
68273;SDS011;55104;47.356;19.448;2022-08-03T01:12:21;9.13;;;5.50;;
68273;SDS011;55104;47.356;19.448;2022-08-03T01:19:11;10.30;;;5.07;;
68273;SDS011;55104;47.356;19.448;2022-08-03T01:32:51;9.48;;;5.78;;
68273;SDS011;55104;47.356;19.448;2022-08-03T01:36:04;11.13;;;6.10;;
68273;SDS011;55104;47.356;19.448;2022-08-03T01:39:10;9.20;;;5.60;;
68273;SDS011;55104;47.356;19.448;2022-08-03T01:42:13;11.80;;;6.30;;
68273;SDS011;55104;47.356;19.448;2022-08-03T01:45:18;12.95;;;5.97;;
68273;SDS011;55104;47.356;19.448;2022-08-03T01:48:22;8.57;;;5.63;;
68273;SDS011;55104;47.356;19.448;2022-08-03T01:51:26;10.50;;;5.93;;
68273;SDS011;55104;47.356;19.448;2022-08-03T01:54:51;10.43;;;6.03;;
68273;SDS011;55104;47.356;19.448;2022-08-03T01:57:54;9.60;;;6.03;;
68273;SDS011;55104;47.356;19.448;2022-08-03T02:01:07;10.10;;;5.95;;
68273;SDS011;55104;47.356;19.448;2022-08-03T02:04:11;13.95;;;6.25;;
68273;SDS011;55104;47.356;19.448;2022-08-03T02:07:15;12.07;;;5.80;;
68273;SDS011;55104;47.356;19.448;2022-08-03T02:10:19;9.32;;;6.10;;
68273;SDS011;55104;47.356;19.448;2022-08-03T02:13:35;9.43;;;5.28;;
68273;SDS011;55104;47.356;19.448;2022-08-03T02:16:39;9.88;;;5.95;;
68273;SDS011;55104;47.356;19.448;2022-08-03T02:19:42;10.02;;;5.65;;
68273;SDS011;55104;47.356;19.448;2022-08-03T02:22:45;11.23;;;6.07;;
68273;SDS011;55104;47.356;19.448;2022-08-03T02:25:50;10.68;;;5.97;;
68273;SDS011;55104;47.356;19.448;2022-08-03T02:29:02;9.77;;;5.47;;
68273;SDS011;55104;47.356;19.448;2022-08-03T02:32:08;9.88;;;5.65;;
68273;SDS011;55104;47.356;19.448;2022-08-03T02:35:15;11.65;;;5.60;;
68273;SDS011;55104;47.356;19.448;2022-08-03T02:38:22;10.60;;;6.10;;
68273;SDS011;55104;47.356;19.448;2022-08-03T02:41:35;9.65;;;5.68;;
68273;SDS011;55104;47.356;19.448;2022-08-03T02:44:42;11.15;;;6.07;;
68273;SDS011;55104;47.356;19.448;2022-08-03T02:47:49;10.13;;;5.93;;
68273;SDS011;55104;47.356;19.448;2022-08-03T02:50:57;12.38;;;6.05;;
68273;SDS011;55104;47.356;19.448;2022-08-03T02:54:01;9.50;;;5.90;;
68273;SDS011;55104;47.356;19.448;2022-08-03T02:57:05;9.40;;;5.57;;
68273;SDS011;55104;47.356;19.448;2022-08-03T03:00:10;11.23;;;5.18;;
68273;SDS011;55104;47.356;19.448;2022-08-03T03:03:20;10.85;;;5.47;;
68273;SDS011;55104;47.356;19.448;2022-08-03T03:06:26;11.55;;;5.90;;
68273;SDS011;55104;47.356;19.448;2022-08-03T03:09:31;10.60;;;5.83;;
68273;SDS011;55104;47.356;19.448;2022-08-03T03:12:44;10.55;;;5.57;;
68273;SDS011;55104;47.356;19.448;2022-08-03T03:15:47;9.70;;;5.55;;
68273;SDS011;55104;47.356;19.448;2022-08-03T03:18:50;11.00;;;5.75;;
68273;SDS011;55104;47.356;19.448;2022-08-03T03:21:52;10.55;;;5.90;;
68273;SDS011;55104;47.356;19.448;2022-08-03T03:24:56;11.27;;;6.03;;
68273;SDS011;55104;47.356;19.448;2022-08-03T03:27:59;10.15;;;5.40;;
68273;SDS011;55104;47.356;19.448;2022-08-03T03:31:03;12.75;;;6.05;;
68273;SDS011;55104;47.356;19.448;2022-08-03T03:34:06;14.52;;;6.22;;
68273;SDS011;55104;47.356;19.448;2022-08-03T03:37:08;14.98;;;5.90;;
68273;SDS011;55104;47.356;19.448;2022-08-03T03:40:11;10.67;;;5.43;;
68273;SDS011;55104;47.356;19.448;2022-08-03T03:43:14;11.85;;;5.85;;
68273;SDS011;55104;47.356;19.448;2022-08-03T03:46:19;10.50;;;5.93;;
68273;SDS011;55104;47.356;19.448;2022-08-03T03:49:21;11.10;;;5.38;;
68273;SDS011;55104;47.356;19.448;2022-08-03T03:52:23;14.73;;;6.55;;
68273;SDS011;55104;47.356;19.448;2022-08-03T03:55:25;12.27;;;5.77;;
68273;SDS011;55104;47.356;19.448;2022-08-03T03:58:27;10.57;;;5.82;;
68273;SDS011;55104;47.356;19.448;2022-08-03T04:01:30;12.07;;;6.60;;
68273;SDS011;55104;47.356;19.448;2022-08-03T04:04:33;10.95;;;6.38;;
68273;SDS011;55104;47.356;19.448;2022-08-03T04:14:46;12.32;;;6.80;;
68273;SDS011;55104;47.356;19.448;2022-08-03T04:17:49;13.27;;;7.00;;
68273;SDS011;55104;47.356;19.448;2022-08-03T04:20:55;13.52;;;6.88;;
68273;SDS011;55104;47.356;19.448;2022-08-03T04:24:02;12.35;;;6.00;;
68273;SDS011;55104;47.356;19.448;2022-08-03T04:27:07;10.77;;;6.27;;
68273;SDS011;55104;47.356;19.448;2022-08-03T04:30:12;10.55;;;6.00;;
68273;SDS011;55104;47.356;19.448;2022-08-03T04:33:15;11.73;;;6.70;;
68273;SDS011;55104;47.356;19.448;2022-08-03T04:36:20;10.98;;;6.50;;
68273;SDS011;55104;47.356;19.448;2022-08-03T04:39:26;12.68;;;5.78;;
68273;SDS011;55104;47.356;19.448;2022-08-03T04:42:30;12.37;;;5.90;;
68273;SDS011;55104;47.356;19.448;2022-08-03T04:45:34;10.75;;;6.00;;
68273;SDS011;55104;47.356;19.448;2022-08-03T04:48:37;11.57;;;5.75;;
68273;SDS011;55104;47.356;19.448;2022-08-03T04:51:45;11.30;;;5.75;;
68273;SDS011;55104;47.356;19.448;2022-08-03T04:54:47;9.98;;;5.25;;
68273;SDS011;55104;47.356;19.448;2022-08-03T04:57:51;10.63;;;4.93;;
68273;SDS011;55104;47.356;19.448;2022-08-03T05:00:54;9.55;;;5.25;;
68273;SDS011;55104;47.356;19.448;2022-08-03T05:03:56;10.75;;;5.05;;
68273;SDS011;55104;47.356;19.448;2022-08-03T05:06:58;12.20;;;5.30;;
68273;SDS011;55104;47.356;19.448;2022-08-03T05:10:12;9.98;;;5.20;;
68273;SDS011;55104;47.356;19.448;2022-08-03T05:13:17;10.53;;;5.50;;
68273;SDS011;55104;47.356;19.448;2022-08-03T05:16:19;9.93;;;5.53;;
68273;SDS011;55104;47.356;19.448;2022-08-03T05:19:21;13.70;;;5.63;;
68273;SDS011;55104;47.356;19.448;2022-08-03T05:22:23;10.07;;;5.63;;
68273;SDS011;55104;47.356;19.448;2022-08-03T05:25:25;12.25;;;6.40;;
68273;SDS011;55104;47.356;19.448;2022-08-03T05:28:28;11.40;;;6.03;;
68273;SDS011;55104;47.356;19.448;2022-08-03T05:31:30;10.15;;;5.70;;
68273;SDS011;55104;47.356;19.448;2022-08-03T05:34:32;10.25;;;6.00;;
68273;SDS011;55104;47.356;19.448;2022-08-03T05:37:34;9.85;;;5.85;;
68273;SDS011;55104;47.356;19.448;2022-08-03T05:40:37;9.77;;;5.47;;
68273;SDS011;55104;47.356;19.448;2022-08-03T05:43:47;11.43;;;5.50;;
68273;SDS011;55104;47.356;19.448;2022-08-03T05:46:49;9.60;;;5.88;;
68273;SDS011;55104;47.356;19.448;2022-08-03T05:49:51;9.55;;;5.85;;
68273;SDS011;55104;47.356;19.448;2022-08-03T05:52:56;11.98;;;5.85;;
68273;SDS011;55104;47.356;19.448;2022-08-03T05:55:58;10.35;;;5.80;;
68273;SDS011;55104;47.356;19.448;2022-08-03T05:59:15;10.97;;;5.80;;
68273;SDS011;55104;47.356;19.448;2022-08-03T06:02:37;9.65;;;5.43;;
68273;SDS011;55104;47.356;19.448;2022-08-03T06:05:40;9.63;;;5.40;;
68273;SDS011;55104;47.356;19.448;2022-08-03T06:09:00;11.73;;;5.72;;
68273;SDS011;55104;47.356;19.448;2022-08-03T06:12:02;10.02;;;6.20;;
68273;SDS011;55104;47.356;19.448;2022-08-03T06:15:05;10.17;;;6.10;;
68273;SDS011;55104;47.356;19.448;2022-08-03T06:18:12;11.65;;;5.85;;
68273;SDS011;55104;47.356;19.448;2022-08-03T06:21:14;10.95;;;6.30;;
68273;SDS011;55104;47.356;19.448;2022-08-03T06:24:17;11.07;;;6.32;;
68273;SDS011;55104;47.356;19.448;2022-08-03T06:27:25;12.93;;;6.32;;
68273;SDS011;55104;47.356;19.448;2022-08-03T06:30:38;16.10;;;6.60;;
68273;SDS011;55104;47.356;19.448;2022-08-03T06:33:41;11.10;;;5.97;;
68273;SDS011;55104;47.356;19.448;2022-08-03T06:37:03;10.70;;;6.57;;
68273;SDS011;55104;47.356;19.448;2022-08-03T06:40:06;11.32;;;5.97;;
68273;SDS011;55104;47.356;19.448;2022-08-03T06:43:08;10.35;;;7.07;;
68273;SDS011;55104;47.356;19.448;2022-08-03T06:46:13;9.87;;;6.20;;
68273;SDS011;55104;47.356;19.448;2022-08-03T06:49:15;10.48;;;6.25;;
68273;SDS011;55104;47.356;19.448;2022-08-03T06:52:17;10.40;;;5.90;;
68273;SDS011;55104;47.356;19.448;2022-08-03T06:55:39;12.60;;;6.47;;
68273;SDS011;55104;47.356;19.448;2022-08-03T06:58:43;9.55;;;6.30;;
68273;SDS011;55104;47.356;19.448;2022-08-03T07:01:45;12.13;;;5.93;;
68273;SDS011;55104;47.356;19.448;2022-08-03T07:04:47;10.60;;;6.53;;
68273;SDS011;55104;47.356;19.448;2022-08-03T07:07:53;10.02;;;5.63;;
68273;SDS011;55104;47.356;19.448;2022-08-03T07:10:56;10.82;;;6.03;;
68273;SDS011;55104;47.356;19.448;2022-08-03T07:13:58;9.98;;;6.25;;
68273;SDS011;55104;47.356;19.448;2022-08-03T07:17:00;9.83;;;5.97;;
68273;SDS011;55104;47.356;19.448;2022-08-03T07:20:12;8.50;;;5.80;;
68273;SDS011;55104;47.356;19.448;2022-08-03T07:23:15;9.75;;;5.88;;
68273;SDS011;55104;47.356;19.448;2022-08-03T07:26:20;10.50;;;5.97;;
68273;SDS011;55104;47.356;19.448;2022-08-03T07:29:22;10.02;;;6.03;;
68273;SDS011;55104;47.356;19.448;2022-08-03T07:32:24;10.07;;;5.90;;
68273;SDS011;55104;47.356;19.448;2022-08-03T07:35:26;11.18;;;5.82;;
68273;SDS011;55104;47.356;19.448;2022-08-03T07:38:29;11.25;;;5.78;;
68273;SDS011;55104;47.356;19.448;2022-08-03T07:41:31;11.13;;;5.90;;
68273;SDS011;55104;47.356;19.448;2022-08-03T07:44:33;9.32;;;5.45;;
68273;SDS011;55104;47.356;19.448;2022-08-03T07:47:35;11.23;;;6.20;;
68273;SDS011;55104;47.356;19.448;2022-08-03T07:50:37;10.85;;;5.80;;
68273;SDS011;55104;47.356;19.448;2022-08-03T07:53:39;10.68;;;6.45;;
68273;SDS011;55104;47.356;19.448;2022-08-03T07:56:48;9.80;;;5.90;;
68273;SDS011;55104;47.356;19.448;2022-08-03T07:59:50;9.77;;;5.70;;
68273;SDS011;55104;47.356;19.448;2022-08-03T08:03:12;10.33;;;6.13;;
68273;SDS011;55104;47.356;19.448;2022-08-03T08:06:14;10.07;;;5.93;;
68273;SDS011;55104;47.356;19.448;2022-08-03T08:09:17;10.82;;;6.20;;
68273;SDS011;55104;47.356;19.448;2022-08-03T08:12:19;10.15;;;5.55;;
68273;SDS011;55104;47.356;19.448;2022-08-03T08:15:21;11.18;;;5.88;;
68273;SDS011;55104;47.356;19.448;2022-08-03T08:18:24;10.43;;;5.63;;
68273;SDS011;55104;47.356;19.448;2022-08-03T08:21:26;8.70;;;5.53;;
68273;SDS011;55104;47.356;19.448;2022-08-03T08:24:48;9.23;;;5.55;;
68273;SDS011;55104;47.356;19.448;2022-08-03T08:27:52;10.50;;;5.63;;
68273;SDS011;55104;47.356;19.448;2022-08-03T08:31:15;9.13;;;5.15;;
68273;SDS011;55104;47.356;19.448;2022-08-03T08:34:17;9.87;;;5.33;;
68273;SDS011;55104;47.356;19.448;2022-08-03T08:37:19;9.60;;;5.20;;
68273;SDS011;55104;47.356;19.448;2022-08-03T08:40:23;10.68;;;5.50;;
68273;SDS011;55104;47.356;19.448;2022-08-03T08:43:25;8.80;;;5.43;;
68273;SDS011;55104;47.356;19.448;2022-08-03T08:46:31;8.77;;;5.53;;
68273;SDS011;55104;47.356;19.448;2022-08-03T08:49:34;9.20;;;6.00;;
68273;SDS011;55104;47.356;19.448;2022-08-03T08:52:41;8.73;;;5.15;;
68273;SDS011;55104;47.356;19.448;2022-08-03T08:55:46;12.77;;;5.63;;
68273;SDS011;55104;47.356;19.448;2022-08-03T08:59:00;7.95;;;5.07;;
68273;SDS011;55104;47.356;19.448;2022-08-03T09:02:04;7.78;;;4.78;;
68273;SDS011;55104;47.356;19.448;2022-08-03T09:05:09;8.53;;;4.83;;
68273;SDS011;55104;47.356;19.448;2022-08-03T09:08:13;8.13;;;4.55;;
68273;SDS011;55104;47.356;19.448;2022-08-03T09:11:19;9.52;;;5.32;;
68273;SDS011;55104;47.356;19.448;2022-08-03T09:14:42;7.82;;;4.88;;
68273;SDS011;55104;47.356;19.448;2022-08-03T09:18:05;8.20;;;5.32;;
68273;SDS011;55104;47.356;19.448;2022-08-03T09:21:17;7.10;;;4.50;;
68273;SDS011;55104;47.356;19.448;2022-08-03T09:24:33;8.07;;;5.13;;
68273;SDS011;55104;47.356;19.448;2022-08-03T09:27:43;10.82;;;5.15;;
68273;SDS011;55104;47.356;19.448;2022-08-03T09:30:57;8.65;;;4.97;;
68273;SDS011;55104;47.356;19.448;2022-08-03T09:34:04;8.18;;;4.70;;
68273;SDS011;55104;47.356;19.448;2022-08-03T09:37:12;7.33;;;4.47;;
68273;SDS011;55104;47.356;19.448;2022-08-03T09:40:32;7.60;;;4.68;;
68273;SDS011;55104;47.356;19.448;2022-08-03T09:43:44;8.27;;;4.63;;
68273;SDS011;55104;47.356;19.448;2022-08-03T09:46:51;7.15;;;3.90;;
68273;SDS011;55104;47.356;19.448;2022-08-03T09:53:03;6.83;;;3.80;;
68273;SDS011;55104;47.356;19.448;2022-08-03T09:56:06;7.10;;;3.88;;
68273;SDS011;55104;47.356;19.448;2022-08-03T09:59:29;8.40;;;4.20;;
68273;SDS011;55104;47.356;19.448;2022-08-03T10:02:33;8.85;;;3.65;;
68273;SDS011;55104;47.356;19.448;2022-08-03T10:05:36;7.90;;;4.63;;
68273;SDS011;55104;47.356;19.448;2022-08-03T10:08:40;7.40;;;4.23;;
68273;SDS011;55104;47.356;19.448;2022-08-03T10:11:43;7.07;;;4.07;;
68273;SDS011;55104;47.356;19.448;2022-08-03T10:14:47;8.20;;;4.15;;
68273;SDS011;55104;47.356;19.448;2022-08-03T10:17:49;7.78;;;3.80;;
68273;SDS011;55104;47.356;19.448;2022-08-03T10:20:52;6.95;;;3.85;;
68273;SDS011;55104;47.356;19.448;2022-08-03T10:23:56;7.37;;;4.10;;
68273;SDS011;55104;47.356;19.448;2022-08-03T10:27:00;6.95;;;4.07;;
68273;SDS011;55104;47.356;19.448;2022-08-03T10:30:06;7.65;;;4.45;;
68273;SDS011;55104;47.356;19.448;2022-08-03T10:33:14;7.07;;;3.90;;
68273;SDS011;55104;47.356;19.448;2022-08-03T10:36:40;6.70;;;3.53;;
68273;SDS011;55104;47.356;19.448;2022-08-03T10:39:43;7.47;;;3.53;;
68273;SDS011;55104;47.356;19.448;2022-08-03T10:42:55;7.72;;;3.92;;
68273;SDS011;55104;47.356;19.448;2022-08-03T10:46:04;6.78;;;3.90;;
68273;SDS011;55104;47.356;19.448;2022-08-03T10:49:11;7.07;;;3.75;;
68273;SDS011;55104;47.356;19.448;2022-08-03T10:52:35;7.10;;;4.22;;
68273;SDS011;55104;47.356;19.448;2022-08-03T10:59:56;7.20;;;3.78;;
68273;SDS011;55104;47.356;19.448;2022-08-03T11:06:16;8.60;;;4.00;;
68273;SDS011;55104;47.356;19.448;2022-08-03T11:09:21;9.00;;;3.72;;
68273;SDS011;55104;47.356;19.448;2022-08-03T11:12:30;9.80;;;3.97;;
68273;SDS011;55104;47.356;19.448;2022-08-03T11:15:33;6.63;;;3.45;;
68273;SDS011;55104;47.356;19.448;2022-08-03T11:18:36;6.25;;;3.60;;
68273;SDS011;55104;47.356;19.448;2022-08-03T11:21:57;7.85;;;3.55;;
68273;SDS011;55104;47.356;19.448;2022-08-03T11:24:59;6.18;;;3.20;;
68273;SDS011;55104;47.356;19.448;2022-08-03T11:28:23;6.07;;;3.30;;
68273;SDS011;55104;47.356;19.448;2022-08-03T11:35:09;6.85;;;3.40;;
68273;SDS011;55104;47.356;19.448;2022-08-03T11:38:15;8.13;;;3.60;;
68273;SDS011;55104;47.356;19.448;2022-08-03T11:41:32;6.15;;;3.20;;
68273;SDS011;55104;47.356;19.448;2022-08-03T11:44:45;7.63;;;3.23;;
68273;SDS011;55104;47.356;19.448;2022-08-03T11:47:48;6.57;;;3.17;;
68273;SDS011;55104;47.356;19.448;2022-08-03T11:50:56;6.55;;;3.38;;
68273;SDS011;55104;47.356;19.448;2022-08-03T11:53:59;6.22;;;3.20;;
68273;SDS011;55104;47.356;19.448;2022-08-03T11:57:05;6.57;;;3.42;;
68273;SDS011;55104;47.356;19.448;2022-08-03T12:00:20;7.73;;;3.00;;
68273;SDS011;55104;47.356;19.448;2022-08-03T12:03:33;6.25;;;3.40;;
68273;SDS011;55104;47.356;19.448;2022-08-03T12:06:35;6.32;;;2.97;;
68273;SDS011;55104;47.356;19.448;2022-08-03T12:10:08;5.38;;;2.80;;
68273;SDS011;55104;47.356;19.448;2022-08-03T12:13:14;5.68;;;2.80;;
68273;SDS011;55104;47.356;19.448;2022-08-03T12:16:38;7.10;;;2.70;;
68273;SDS011;55104;47.356;19.448;2022-08-03T12:19:41;8.95;;;4.22;;
68273;SDS011;55104;47.356;19.448;2022-08-03T12:22:43;6.60;;;2.88;;
68273;SDS011;55104;47.356;19.448;2022-08-03T12:25:46;5.57;;;2.78;;
68273;SDS011;55104;47.356;19.448;2022-08-03T12:28:50;5.60;;;2.90;;
68273;SDS011;55104;47.356;19.448;2022-08-03T12:31:52;6.33;;;2.93;;
68273;SDS011;55104;47.356;19.448;2022-08-03T12:34:54;6.32;;;2.80;;
68273;SDS011;55104;47.356;19.448;2022-08-03T12:38:00;5.85;;;2.63;;
68273;SDS011;55104;47.356;19.448;2022-08-03T12:41:08;6.07;;;3.10;;
68273;SDS011;55104;47.356;19.448;2022-08-03T12:44:17;5.82;;;2.92;;
68273;SDS011;55104;47.356;19.448;2022-08-03T12:47:19;7.37;;;2.80;;
68273;SDS011;55104;47.356;19.448;2022-08-03T12:50:25;5.50;;;2.95;;
68273;SDS011;55104;47.356;19.448;2022-08-03T12:53:32;7.70;;;2.78;;
68273;SDS011;55104;47.356;19.448;2022-08-03T12:56:34;5.97;;;2.70;;
68273;SDS011;55104;47.356;19.448;2022-08-03T12:59:58;6.55;;;2.42;;
68273;SDS011;55104;47.356;19.448;2022-08-03T13:03:37;6.77;;;3.27;;
68273;SDS011;55104;47.356;19.448;2022-08-03T13:06:57;7.20;;;2.85;;
68273;SDS011;55104;47.356;19.448;2022-08-03T13:10:04;6.50;;;2.72;;
68273;SDS011;55104;47.356;19.448;2022-08-03T13:13:09;6.78;;;2.40;;
68273;SDS011;55104;47.356;19.448;2022-08-03T13:16:11;6.57;;;3.30;;
68273;SDS011;55104;47.356;19.448;2022-08-03T13:19:19;5.57;;;2.70;;
68273;SDS011;55104;47.356;19.448;2022-08-03T13:22:22;6.45;;;2.90;;
68273;SDS011;55104;47.356;19.448;2022-08-03T13:25:26;7.22;;;3.15;;
68273;SDS011;55104;47.356;19.448;2022-08-03T13:28:28;6.10;;;2.80;;
68273;SDS011;55104;47.356;19.448;2022-08-03T13:31:30;6.55;;;2.75;;
68273;SDS011;55104;47.356;19.448;2022-08-03T13:34:32;5.67;;;2.83;;
68273;SDS011;55104;47.356;19.448;2022-08-03T13:37:34;6.72;;;2.83;;
68273;SDS011;55104;47.356;19.448;2022-08-03T13:40:37;7.50;;;3.53;;
68273;SDS011;55104;47.356;19.448;2022-08-03T13:43:42;6.55;;;2.78;;
68273;SDS011;55104;47.356;19.448;2022-08-03T13:46:45;7.07;;;3.38;;
68273;SDS011;55104;47.356;19.448;2022-08-03T13:49:48;6.63;;;3.10;;
68273;SDS011;55104;47.356;19.448;2022-08-03T13:53:02;6.45;;;3.00;;
68273;SDS011;55104;47.356;19.448;2022-08-03T13:56:04;6.65;;;2.72;;
68273;SDS011;55104;47.356;19.448;2022-08-03T13:59:07;5.50;;;2.80;;
68273;SDS011;55104;47.356;19.448;2022-08-03T14:02:09;8.63;;;2.63;;
68273;SDS011;55104;47.356;19.448;2022-08-03T14:05:11;7.00;;;2.67;;
68273;SDS011;55104;47.356;19.448;2022-08-03T14:08:13;7.82;;;3.20;;
68273;SDS011;55104;47.356;19.448;2022-08-03T14:11:15;6.72;;;2.97;;
68273;SDS011;55104;47.356;19.448;2022-08-03T14:14:17;6.63;;;2.88;;
68273;SDS011;55104;47.356;19.448;2022-08-03T14:17:19;6.18;;;3.10;;
68273;SDS011;55104;47.356;19.448;2022-08-03T14:20:25;5.87;;;2.70;;
68273;SDS011;55104;47.356;19.448;2022-08-03T14:23:47;5.88;;;2.90;;
68273;SDS011;55104;47.356;19.448;2022-08-03T14:26:49;6.72;;;3.00;;
68273;SDS011;55104;47.356;19.448;2022-08-03T14:29:51;5.80;;;2.88;;
68273;SDS011;55104;47.356;19.448;2022-08-03T14:32:53;7.53;;;3.28;;
68273;SDS011;55104;47.356;19.448;2022-08-03T14:36:01;9.13;;;3.00;;
68273;SDS011;55104;47.356;19.448;2022-08-03T14:39:03;7.65;;;2.72;;
68273;SDS011;55104;47.356;19.448;2022-08-03T14:42:05;6.82;;;2.88;;
68273;SDS011;55104;47.356;19.448;2022-08-03T14:45:07;6.15;;;2.97;;
68273;SDS011;55104;47.356;19.448;2022-08-03T14:48:21;5.82;;;3.08;;
68273;SDS011;55104;47.356;19.448;2022-08-03T14:51:45;5.47;;;2.87;;
68273;SDS011;55104;47.356;19.448;2022-08-03T14:54:54;6.95;;;2.88;;
68273;SDS011;55104;47.356;19.448;2022-08-03T14:57:56;7.13;;;3.08;;
68273;SDS011;55104;47.356;19.448;2022-08-03T15:00:58;5.80;;;2.75;;
68273;SDS011;55104;47.356;19.448;2022-08-03T15:04:00;5.43;;;2.90;;
68273;SDS011;55104;47.356;19.448;2022-08-03T15:07:02;5.47;;;2.87;;
68273;SDS011;55104;47.356;19.448;2022-08-03T15:10:05;7.47;;;3.50;;
68273;SDS011;55104;47.356;19.448;2022-08-03T15:13:10;7.15;;;3.00;;
68273;SDS011;55104;47.356;19.448;2022-08-03T15:16:13;6.28;;;2.80;;
68273;SDS011;55104;47.356;19.448;2022-08-03T15:19:15;6.80;;;2.88;;
68273;SDS011;55104;47.356;19.448;2022-08-03T15:22:38;6.27;;;2.97;;
68273;SDS011;55104;47.356;19.448;2022-08-03T15:25:45;6.07;;;3.00;;
68273;SDS011;55104;47.356;19.448;2022-08-03T15:29:07;7.22;;;3.50;;
68273;SDS011;55104;47.356;19.448;2022-08-03T15:32:29;6.00;;;3.00;;
68273;SDS011;55104;47.356;19.448;2022-08-03T15:35:31;7.55;;;3.63;;
68273;SDS011;55104;47.356;19.448;2022-08-03T15:38:33;5.73;;;3.00;;
68273;SDS011;55104;47.356;19.448;2022-08-03T15:41:36;5.70;;;2.67;;
68273;SDS011;55104;47.356;19.448;2022-08-03T15:44:38;7.10;;;3.25;;
68273;SDS011;55104;47.356;19.448;2022-08-03T15:47:40;6.55;;;2.88;;
68273;SDS011;55104;47.356;19.448;2022-08-03T15:50:43;7.78;;;3.10;;
68273;SDS011;55104;47.356;19.448;2022-08-03T15:53:45;5.73;;;2.87;;
68273;SDS011;55104;47.356;19.448;2022-08-03T15:56:47;5.53;;;2.70;;
68273;SDS011;55104;47.356;19.448;2022-08-03T15:59:49;5.80;;;2.70;;
68273;SDS011;55104;47.356;19.448;2022-08-03T16:03:00;6.60;;;3.00;;
68273;SDS011;55104;47.356;19.448;2022-08-03T16:06:08;6.25;;;2.90;;
68273;SDS011;55104;47.356;19.448;2022-08-03T16:09:10;6.33;;;3.10;;
68273;SDS011;55104;47.356;19.448;2022-08-03T16:12:32;5.97;;;3.28;;
68273;SDS011;55104;47.356;19.448;2022-08-03T16:15:34;6.60;;;2.90;;
68273;SDS011;55104;47.356;19.448;2022-08-03T16:18:39;7.35;;;3.25;;
68273;SDS011;55104;47.356;19.448;2022-08-03T16:21:42;6.38;;;3.20;;
68273;SDS011;55104;47.356;19.448;2022-08-03T16:24:49;5.80;;;2.90;;
68273;SDS011;55104;47.356;19.448;2022-08-03T16:27:55;7.07;;;2.97;;
68273;SDS011;55104;47.356;19.448;2022-08-03T16:31:13;7.25;;;2.90;;
68273;SDS011;55104;47.356;19.448;2022-08-03T16:34:15;7.22;;;3.20;;
68273;SDS011;55104;47.356;19.448;2022-08-03T16:37:19;7.35;;;2.53;;
68273;SDS011;55104;47.356;19.448;2022-08-03T16:40:40;6.37;;;2.90;;
68273;SDS011;55104;47.356;19.448;2022-08-03T16:43:42;5.85;;;2.67;;
68273;SDS011;55104;47.356;19.448;2022-08-03T16:46:44;6.60;;;3.25;;
68273;SDS011;55104;47.356;19.448;2022-08-03T16:49:46;5.88;;;2.90;;
68273;SDS011;55104;47.356;19.448;2022-08-03T16:52:56;8.15;;;3.05;;
68273;SDS011;55104;47.356;19.448;2022-08-03T16:55:59;6.87;;;2.80;;
68273;SDS011;55104;47.356;19.448;2022-08-03T16:59:01;6.38;;;3.05;;
68273;SDS011;55104;47.356;19.448;2022-08-03T17:02:04;5.85;;;2.78;;
68273;SDS011;55104;47.356;19.448;2022-08-03T17:05:11;8.27;;;3.47;;
68273;SDS011;55104;47.356;19.448;2022-08-03T17:08:14;7.85;;;3.17;;
68273;SDS011;55104;47.356;19.448;2022-08-03T17:11:19;7.00;;;2.73;;
68273;SDS011;55104;47.356;19.448;2022-08-03T17:14:21;8.25;;;3.35;;
68273;SDS011;55104;47.356;19.448;2022-08-03T17:17:30;5.88;;;2.95;;
68273;SDS011;55104;47.356;19.448;2022-08-03T17:20:54;8.55;;;3.00;;
68273;SDS011;55104;47.356;19.448;2022-08-03T17:24:15;7.22;;;3.10;;
68273;SDS011;55104;47.356;19.448;2022-08-03T17:27:28;11.40;;;3.23;;
68273;SDS011;55104;47.356;19.448;2022-08-03T17:30:52;6.63;;;3.28;;
68273;SDS011;55104;47.356;19.448;2022-08-03T17:34:32;10.10;;;3.00;;
68273;SDS011;55104;47.356;19.448;2022-08-03T17:37:35;8.38;;;3.10;;
68273;SDS011;55104;47.356;19.448;2022-08-03T17:40:57;12.00;;;3.47;;
68273;SDS011;55104;47.356;19.448;2022-08-03T17:44:00;10.63;;;3.20;;
68273;SDS011;55104;47.356;19.448;2022-08-03T17:47:22;6.43;;;3.00;;
68273;SDS011;55104;47.356;19.448;2022-08-03T17:50:48;6.00;;;2.90;;
68273;SDS011;55104;47.356;19.448;2022-08-03T17:57:28;7.70;;;3.45;;
68273;SDS011;55104;47.356;19.448;2022-08-03T18:00:56;7.13;;;3.33;;
68273;SDS011;55104;47.356;19.448;2022-08-03T18:04:37;8.20;;;3.22;;
68273;SDS011;55104;47.356;19.448;2022-08-03T18:07:56;11.05;;;3.33;;
68273;SDS011;55104;47.356;19.448;2022-08-03T18:11:05;8.02;;;3.42;;
68273;SDS011;55104;47.356;19.448;2022-08-03T18:14:20;7.45;;;3.63;;
68273;SDS011;55104;47.356;19.448;2022-08-03T18:18:01;7.37;;;3.47;;
68273;SDS011;55104;47.356;19.448;2022-08-03T18:21:11;7.88;;;3.80;;
68273;SDS011;55104;47.356;19.448;2022-08-03T18:24:18;11.05;;;3.50;;
68273;SDS011;55104;47.356;19.448;2022-08-03T18:27:25;13.40;;;3.78;;
68273;SDS011;55104;47.356;19.448;2022-08-03T18:30:48;10.38;;;4.85;;
68273;SDS011;55104;47.356;19.448;2022-08-03T18:33:55;10.80;;;4.60;;
68273;SDS011;55104;47.356;19.448;2022-08-03T18:37:19;9.65;;;4.45;;
68273;SDS011;55104;47.356;19.448;2022-08-03T18:40:27;14.45;;;4.93;;
68273;SDS011;55104;47.356;19.448;2022-08-03T18:43:30;16.17;;;5.68;;
68273;SDS011;55104;47.356;19.448;2022-08-03T18:53:41;7.70;;;3.40;;
68273;SDS011;55104;47.356;19.448;2022-08-03T18:57:06;8.52;;;3.88;;
68273;SDS011;55104;47.356;19.448;2022-08-03T19:00:16;13.85;;;3.85;;
68273;SDS011;55104;47.356;19.448;2022-08-03T19:03:35;9.35;;;3.85;;
68273;SDS011;55104;47.356;19.448;2022-08-03T19:06:44;9.80;;;3.70;;
68273;SDS011;55104;47.356;19.448;2022-08-03T19:09:53;7.25;;;3.47;;
68273;SDS011;55104;47.356;19.448;2022-08-03T19:13:23;12.93;;;3.80;;